Time;durP1;ratioP1;P1;durP2;ratioP2;P2;SDS_P1;SDS_P2;PMS_P1;PMS_P2;Temp;Humidity;BMP_temperature;BMP_pressure;BME280_temperature;BME280_humidity;BME280_pressure;Samples;Min_cycle;Max_cycle;Signal;HPM_P1;HPM_P2
2021/09/03 00:02:04;;;;;;;22.02;11.10;;;;;;;;;;5010205;28;20175;-68
2021/09/03 00:04:29;;;;;;;21.05;11.73;;;;;;;;;;4996228;28;20655;-68
2021/09/03 00:06:54;;;;;;;19.52;11.40;;;;;;;;;;4996663;28;20224;-68
2021/09/03 00:09:19;;;;;;;20.60;13.13;;;;;;;;;;5013705;28;20265;-69
2021/09/03 00:11:45;;;;;;;21.58;12.77;;;;;;;;;;5010803;28;20323;-69
2021/09/03 00:14:10;;;;;;;19.35;12.25;;;;;;;;;;4998197;28;20659;-68
2021/09/03 00:16:37;;;;;;;19.88;12.55;;;;;;;;;;4991005;28;20207;-69
2021/09/03 00:19:03;;;;;;;21.45;12.85;;;;;;;;;;4989007;28;21631;-69
2021/09/03 00:21:28;;;;;;;21.63;13.18;;;;;;;;;;4987419;28;20241;-66
2021/09/03 00:23:53;;;;;;;20.98;12.65;;;;;;;;;;4994820;28;20317;-69
2021/09/03 00:26:18;;;;;;;18.80;11.90;;;;;;;;;;4989435;28;20194;-66
2021/09/03 00:28:43;;;;;;;22.42;13.30;;;;;;;;;;4990193;28;20191;-70
2021/09/03 00:31:09;;;;;;;19.48;12.00;;;;;;;;;;4992432;28;20207;-68
2021/09/03 00:33:34;;;;;;;19.45;12.23;;;;;;;;;;4995282;28;20248;-68
2021/09/03 00:35:59;;;;;;;19.80;13.25;;;;;;;;;;4992527;28;20225;-69
2021/09/03 00:38:24;;;;;;;20.92;12.70;;;;;;;;;;4970809;28;20306;-70
2021/09/03 00:40:49;;;;;;;23.60;13.05;;;;;;;;;;4991100;28;20664;-69
2021/09/03 00:43:14;;;;;;;24.33;13.82;;;;;;;;;;4998632;28;20193;-70
2021/09/03 00:45:40;;;;;;;23.52;12.48;;;;;;;;;;4994614;28;22032;-69
2021/09/03 00:48:05;;;;;;;19.42;13.20;;;;;;;;;;5009598;28;20183;-70
2021/09/03 00:50:30;;;;;;;20.92;12.57;;;;;;;;;;5012224;28;20668;-68
2021/09/03 00:52:55;;;;;;;25.70;12.73;;;;;;;;;;5012354;28;20214;-68
2021/09/03 00:55:20;;;;;;;26.00;12.93;;;;;;;;;;5008558;28;20293;-69
2021/09/03 00:57:46;;;;;;;21.38;13.13;;;;;;;;;;5013411;28;20712;-69
2021/09/03 01:00:11;;;;;;;26.40;13.38;;;;;;;;;;5011286;28;20211;-67
2021/09/03 01:02:36;;;;;;;29.75;13.85;;;;;;;;;;5010458;28;20175;-68
2021/09/03 01:05:02;;;;;;;18.83;11.90;;;;;;;;;;5012253;28;20190;-69
2021/09/03 01:07:27;;;;;;;21.65;13.95;;;;;;;;;;5011712;28;20183;-68
2021/09/03 01:09:52;;;;;;;21.05;12.85;;;;;;;;;;5003688;28;20207;-69
2021/09/03 01:12:17;;;;;;;30.10;15.63;;;;;;;;;;5002690;28;20195;-68
2021/09/03 01:14:43;;;;;;;20.63;12.60;;;;;;;;;;5000850;28;20237;-68
2021/09/03 01:17:08;;;;;;;24.33;13.00;;;;;;;;;;4990242;28;20175;-67
2021/09/03 01:19:33;;;;;;;21.45;13.77;;;;;;;;;;4990742;28;20203;-68
2021/09/03 01:21:58;;;;;;;25.02;14.40;;;;;;;;;;4991338;28;20175;-68
2021/09/03 01:24:24;;;;;;;21.30;13.73;;;;;;;;;;4992115;28;20183;-68
2021/09/03 01:26:49;;;;;;;23.38;13.25;;;;;;;;;;4971798;28;20190;-68
2021/09/03 01:29:14;;;;;;;21.65;14.05;;;;;;;;;;4990673;28;20234;-68
2021/09/03 01:31:40;;;;;;;22.85;14.50;;;;;;;;;;4970814;28;20561;-68
2021/09/03 01:34:05;;;;;;;25.02;13.05;;;;;;;;;;4974157;28;20641;-67
2021/09/03 01:36:31;;;;;;;24.80;14.15;;;;;;;;;;4988749;28;20218;-67
2021/09/03 01:38:57;;;;;;;25.00;13.68;;;;;;;;;;4992775;28;20175;-68
2021/09/03 01:41:22;;;;;;;25.80;13.85;;;;;;;;;;5007531;28;20183;-68
2021/09/03 01:43:48;;;;;;;23.30;14.13;;;;;;;;;;5010805;28;20186;-68
2021/09/03 01:46:13;;;;;;;22.65;14.07;;;;;;;;;;5012302;28;20179;-69
2021/09/03 01:48:38;;;;;;;25.70;15.98;;;;;;;;;;5010618;28;20190;-68
2021/09/03 01:51:03;;;;;;;24.98;13.90;;;;;;;;;;4999979;28;20222;-68
2021/09/03 01:53:29;;;;;;;22.98;14.43;;;;;;;;;;5010413;28;20214;-68
2021/09/03 01:55:54;;;;;;;23.73;14.27;;;;;;;;;;5010533;28;20696;-67
2021/09/03 01:58:19;;;;;;;24.27;14.02;;;;;;;;;;5008902;28;20233;-69
2021/09/03 02:00:44;;;;;;;24.80;14.00;;;;;;;;;;5005910;28;20285;-69
2021/09/03 02:03:09;;;;;;;21.73;14.70;;;;;;;;;;5011256;28;20558;-69
2021/09/03 02:05:34;;;;;;;24.10;14.55;;;;;;;;;;5008034;28;20222;-69
2021/09/03 02:08:00;;;;;;;24.38;14.60;;;;;;;;;;5010014;28;20645;-68
2021/09/03 02:10:25;;;;;;;23.75;14.77;;;;;;;;;;5022019;23;20257;-85
2021/09/03 02:12:50;;;;;;;22.67;14.48;;;;;;;;;;5011407;28;20525;-85
2021/09/03 02:15:15;;;;;;;23.70;13.73;;;;;;;;;;5012229;28;20199;-85
2021/09/03 02:17:41;;;;;;;27.80;16.17;;;;;;;;;;5012759;28;20272;-85
2021/09/03 02:20:07;;;;;;;23.25;14.80;;;;;;;;;;5025062;28;20724;-84
2021/09/03 02:22:34;;;;;;;26.55;14.60;;;;;;;;;;5013501;28;20174;-86
2021/09/03 02:24:59;;;;;;;24.83;15.88;;;;;;;;;;5005782;23;20235;-69
2021/09/03 02:27:25;;;;;;;23.58;14.50;;;;;;;;;;4987500;28;20226;-68
2021/09/03 02:29:50;;;;;;;23.88;14.52;;;;;;;;;;4982388;28;20203;-69
2021/09/03 02:32:19;;;;;;;27.70;15.50;;;;;;;;;;4990427;28;20179;-69
2021/09/03 02:34:44;;;;;;;25.45;14.77;;;;;;;;;;4989320;28;20180;-69
2021/09/03 02:37:09;;;;;;;30.48;16.10;;;;;;;;;;4992198;28;20179;-69
2021/09/03 02:39:35;;;;;;;23.23;15.02;;;;;;;;;;4990322;28;20214;-68
2021/09/03 02:42:00;;;;;;;29.95;16.45;;;;;;;;;;4991450;28;20179;-69
2021/09/03 02:44:25;;;;;;;25.63;14.73;;;;;;;;;;4990356;28;20658;-69
2021/09/03 02:46:50;;;;;;;26.77;15.70;;;;;;;;;;4991516;28;20185;-68
2021/09/03 02:49:15;;;;;;;23.40;14.97;;;;;;;;;;4990552;28;20429;-69
2021/09/03 02:51:40;;;;;;;26.53;17.33;;;;;;;;;;4992005;28;20215;-69
2021/09/03 02:54:06;;;;;;;24.40;15.30;;;;;;;;;;4988516;28;20262;-69
2021/09/03 02:56:31;;;;;;;27.38;15.43;;;;;;;;;;4991037;28;20203;-69
2021/09/03 02:58:56;;;;;;;27.35;16.52;;;;;;;;;;4989718;28;20207;-68
2021/09/03 03:01:21;;;;;;;27.70;16.37;;;;;;;;;;4989203;28;20209;-68
2021/09/03 03:03:46;;;;;;;30.40;16.70;;;;;;;;;;4991077;28;20188;-70
2021/09/03 03:06:12;;;;;;;30.53;16.77;;;;;;;;;;4990646;28;20187;-69
2021/09/03 03:08:37;;;;;;;31.20;16.02;;;;;;;;;;4990349;28;20191;-68
2021/09/03 03:11:02;;;;;;;29.27;17.13;;;;;;;;;;4983132;28;20740;-70
2021/09/03 03:13:29;;;;;;;24.65;15.77;;;;;;;;;;4983901;28;20559;-69
2021/09/03 03:15:55;;;;;;;28.45;17.23;;;;;;;;;;4991430;28;20214;-69
2021/09/03 03:18:20;;;;;;;28.48;16.83;;;;;;;;;;4988644;28;20540;-69
2021/09/03 03:20:46;;;;;;;33.90;18.48;;;;;;;;;;4992502;28;20234;-69
2021/09/03 03:23:12;;;;;;;29.77;16.43;;;;;;;;;;4994667;28;20230;-69
2021/09/03 03:25:37;;;;;;;28.20;17.30;;;;;;;;;;4992845;28;20242;-70
2021/09/03 03:28:03;;;;;;;29.33;18.07;;;;;;;;;;4994585;28;20266;-69
2021/09/03 03:30:28;;;;;;;26.42;17.77;;;;;;;;;;4991095;28;20726;-69
2021/09/03 03:32:53;;;;;;;33.40;18.85;;;;;;;;;;4993464;28;20191;-70
2021/09/03 03:35:19;;;;;;;29.55;17.77;;;;;;;;;;4992238;28;20295;-69
2021/09/03 03:37:44;;;;;;;28.87;17.97;;;;;;;;;;4994148;28;20180;-69
2021/09/03 03:40:09;;;;;;;30.25;17.23;;;;;;;;;;4996391;28;20250;-69
2021/09/03 03:42:35;;;;;;;33.87;18.20;;;;;;;;;;4998256;28;20175;-69
2021/09/03 03:45:00;;;;;;;32.63;18.23;;;;;;;;;;4997533;28;20187;-70
2021/09/03 03:47:25;;;;;;;37.23;19.30;;;;;;;;;;4997929;28;20180;-70
2021/09/03 03:49:50;;;;;;;32.30;18.38;;;;;;;;;;4997241;28;20701;-70
2021/09/03 03:52:15;;;;;;;32.63;18.73;;;;;;;;;;4995778;28;20198;-69
2021/09/03 03:54:40;;;;;;;29.92;19.52;;;;;;;;;;4992390;28;20661;-69
2021/09/03 03:57:06;;;;;;;38.20;20.05;;;;;;;;;;4994621;28;20195;-69
2021/09/03 03:59:31;;;;;;;32.88;18.67;;;;;;;;;;4992300;28;20172;-69
2021/09/03 04:01:56;;;;;;;36.97;19.30;;;;;;;;;;4993914;28;20258;-69
2021/09/03 04:04:21;;;;;;;29.80;17.90;;;;;;;;;;4993299;28;20262;-69
2021/09/03 04:06:47;;;;;;;31.60;18.50;;;;;;;;;;4992250;28;20573;-69
2021/09/03 04:09:12;;;;;;;36.03;19.90;;;;;;;;;;4995127;28;20167;-70
2021/09/03 04:11:40;;;;;;;35.92;21.17;;;;;;;;;;4997454;28;20254;-69
2021/09/03 04:14:06;;;;;;;37.20;20.80;;;;;;;;;;4996380;28;20789;-69
2021/09/03 04:16:31;;;;;;;40.50;21.05;;;;;;;;;;4997614;28;20200;-70
2021/09/03 04:18:56;;;;;;;37.83;21.30;;;;;;;;;;4995141;28;20172;-69
2021/09/03 04:21:21;;;;;;;34.42;21.48;;;;;;;;;;4997251;28;20604;-70
2021/09/03 04:23:46;;;;;;;35.43;20.13;;;;;;;;;;4997341;28;20661;-69
2021/09/03 04:26:12;;;;;;;37.37;20.60;;;;;;;;;;4997422;28;20223;-70
2021/09/03 04:28:37;;;;;;;39.33;20.30;;;;;;;;;;4993221;28;20692;-69
2021/09/03 04:31:02;;;;;;;34.67;19.27;;;;;;;;;;4991278;28;20298;-70
2021/09/03 04:33:27;;;;;;;41.47;24.35;;;;;;;;;;4993786;28;20184;-69
2021/09/03 04:35:52;;;;;;;34.03;20.93;;;;;;;;;;4985113;28;20572;-69
2021/09/03 04:38:17;;;;;;;35.67;20.70;;;;;;;;;;4983816;28;20203;-68
2021/09/03 04:40:44;;;;;;;37.17;21.57;;;;;;;;;;4991861;28;20238;-69
2021/09/03 04:43:09;;;;;;;36.85;20.40;;;;;;;;;;4991732;28;20278;-69
2021/09/03 04:45:34;;;;;;;36.50;22.97;;;;;;;;;;4994257;28;20267;-69
2021/09/03 04:47:59;;;;;;;42.33;20.77;;;;;;;;;;4992393;28;20199;-69
2021/09/03 04:50:24;;;;;;;41.20;21.07;;;;;;;;;;4992902;28;20677;-69
2021/09/03 04:52:50;;;;;;;35.03;21.70;;;;;;;;;;4992294;28;20185;-69
2021/09/03 04:55:15;;;;;;;37.07;22.20;;;;;;;;;;4992347;28;20699;-69
2021/09/03 04:57:44;;;;;;;40.27;21.07;;;;;;;;;;4990062;28;20184;-69
2021/09/03 05:00:10;;;;;;;36.83;21.97;;;;;;;;;;4989425;28;20219;-69
2021/09/03 05:02:36;;;;;;;38.37;21.37;;;;;;;;;;4992398;28;20708;-69
2021/09/03 05:05:02;;;;;;;38.40;21.13;;;;;;;;;;4983716;28;20192;-69
2021/09/03 05:07:27;;;;;;;35.47;22.05;;;;;;;;;;4990011;28;20241;-69
2021/09/03 05:09:52;;;;;;;41.28;22.63;;;;;;;;;;4989623;28;20326;-69
2021/09/03 05:12:18;;;;;;;30.80;19.38;;;;;;;;;;4988780;28;20192;-69
2021/09/03 05:14:43;;;;;;;38.73;21.07;;;;;;;;;;4991690;28;20222;-69
2021/09/03 05:17:08;;;;;;;37.57;20.80;;;;;;;;;;4991515;28;20259;-69
2021/09/03 05:19:33;;;;;;;38.43;21.70;;;;;;;;;;4991379;28;20176;-69
2021/09/03 05:21:58;;;;;;;38.55;22.13;;;;;;;;;;4991567;28;20672;-69
2021/09/03 05:24:24;;;;;;;39.60;22.88;;;;;;;;;;4993593;28;20191;-70
2021/09/03 05:26:49;;;;;;;34.88;21.40;;;;;;;;;;4993472;28;20242;-70
2021/09/03 05:29:14;;;;;;;37.93;21.87;;;;;;;;;;4992967;28;20183;-69
2021/09/03 05:31:39;;;;;;;42.50;23.85;;;;;;;;;;4993267;28;20211;-70
2021/09/03 05:34:04;;;;;;;37.93;21.87;;;;;;;;;;4994039;28;20179;-70
2021/09/03 05:36:29;;;;;;;37.80;22.93;;;;;;;;;;4993943;28;20195;-69
2021/09/03 05:38:55;;;;;;;36.67;21.48;;;;;;;;;;4993472;28;20187;-69
2021/09/03 05:41:20;;;;;;;37.75;21.05;;;;;;;;;;4992170;28;20191;-69
2021/09/03 05:43:45;;;;;;;35.60;19.90;;;;;;;;;;4993249;28;20799;-69
2021/09/03 05:46:10;;;;;;;38.50;21.80;;;;;;;;;;4993063;28;20186;-69
2021/09/03 05:48:35;;;;;;;35.73;21.00;;;;;;;;;;4992751;28;20179;-69
2021/09/03 05:51:00;;;;;;;34.63;21.00;;;;;;;;;;4992806;28;20286;-69
2021/09/03 05:53:26;;;;;;;39.53;21.95;;;;;;;;;;4992830;28;20207;-69
2021/09/03 05:55:51;;;;;;;39.13;20.67;;;;;;;;;;4989422;28;20389;-68
2021/09/03 05:58:16;;;;;;;33.67;20.60;;;;;;;;;;4990431;28;20625;-68
2021/09/03 06:00:41;;;;;;;34.85;21.00;;;;;;;;;;4987081;28;20274;-71
2021/09/03 06:03:06;;;;;;;33.50;21.27;;;;;;;;;;4991216;28;20227;-68
2021/09/03 06:05:32;;;;;;;33.67;20.52;;;;;;;;;;4980061;28;20184;-69
2021/09/03 06:07:57;;;;;;;27.73;18.35;;;;;;;;;;4987807;28;20196;-68
2021/09/03 06:10:22;;;;;;;30.45;19.27;;;;;;;;;;4983532;28;20223;-68
2021/09/03 06:12:49;;;;;;;31.35;18.88;;;;;;;;;;4991701;28;20234;-69
2021/09/03 06:15:14;;;;;;;30.25;20.42;;;;;;;;;;4989339;28;20257;-70
2021/09/03 06:17:39;;;;;;;28.95;19.48;;;;;;;;;;4988107;28;20183;-69
2021/09/03 06:20:05;;;;;;;27.98;18.48;;;;;;;;;;4988469;28;20202;-69
2021/09/03 06:22:31;;;;;;;39.42;20.65;;;;;;;;;;4992260;28;20203;-69
2021/09/03 06:24:56;;;;;;;29.83;19.00;;;;;;;;;;4989124;28;20222;-68
2021/09/03 06:27:21;;;;;;;26.45;18.38;;;;;;;;;;4991170;28;20184;-70
2021/09/03 06:29:47;;;;;;;29.60;18.80;;;;;;;;;;4984873;28;20215;-68
2021/09/03 06:32:23;;;;;;;29.00;18.88;;;;;;;;;;4990128;28;20194;-69
2021/09/03 06:34:58;;;;;;;26.65;18.30;;;;;;;;;;4987788;28;20210;-69
2021/09/03 06:37:25;;;;;;;26.55;18.17;;;;;;;;;;4989780;28;20175;-69
2021/09/03 06:39:50;;;;;;;28.92;17.95;;;;;;;;;;4991656;28;20191;-69
2021/09/03 06:42:16;;;;;;;23.27;16.63;;;;;;;;;;4992107;28;20544;-70
2021/09/03 06:44:41;;;;;;;25.95;17.70;;;;;;;;;;4992166;28;20175;-69
2021/09/03 06:47:07;;;;;;;23.50;18.25;;;;;;;;;;4991824;28;20187;-69
2021/09/03 06:49:33;;;;;;;21.67;15.93;;;;;;;;;;4986560;28;20183;-69
2021/09/03 06:51:58;;;;;;;24.25;17.80;;;;;;;;;;4990684;28;20182;-69
2021/09/03 06:54:23;;;;;;;22.95;16.15;;;;;;;;;;4991417;28;20167;-69
2021/09/03 06:56:49;;;;;;;26.92;16.38;;;;;;;;;;4987605;28;20200;-69
2021/09/03 06:59:14;;;;;;;21.48;15.88;;;;;;;;;;4989522;28;20195;-70
2021/09/03 07:01:39;;;;;;;25.33;16.23;;;;;;;;;;4990889;28;20206;-69
2021/09/03 07:04:05;;;;;;;22.05;16.63;;;;;;;;;;4991044;28;20178;-69
2021/09/03 07:06:30;;;;;;;22.33;16.70;;;;;;;;;;4991783;28;20230;-69
2021/09/03 07:08:56;;;;;;;26.85;15.80;;;;;;;;;;4991584;28;20178;-69
2021/09/03 07:11:21;;;;;;;21.42;16.23;;;;;;;;;;4985996;28;20199;-69
2021/09/03 07:13:47;;;;;;;22.75;15.45;;;;;;;;;;4991891;28;20176;-69
2021/09/03 07:16:12;;;;;;;22.10;15.40;;;;;;;;;;4991534;28;20262;-69
2021/09/03 07:18:37;;;;;;;24.67;16.38;;;;;;;;;;4989519;28;20437;-69
2021/09/03 07:21:02;;;;;;;22.35;15.82;;;;;;;;;;4991458;28;20203;-68
2021/09/03 07:23:27;;;;;;;23.10;15.43;;;;;;;;;;4991750;28;20196;-68
2021/09/03 07:25:53;;;;;;;24.53;15.10;;;;;;;;;;4990830;28;20184;-69
2021/09/03 07:28:18;;;;;;;20.20;14.75;;;;;;;;;;4980305;28;20461;-68
2021/09/03 07:30:43;;;;;;;21.80;13.82;;;;;;;;;;4984978;28;20673;-68
2021/09/03 07:33:09;;;;;;;20.00;13.93;;;;;;;;;;4991672;28;20206;-68
2021/09/03 07:35:34;;;;;;;21.67;15.18;;;;;;;;;;4990503;28;20207;-68
2021/09/03 07:37:59;;;;;;;18.90;12.80;;;;;;;;;;4991229;28;20668;-68
2021/09/03 07:40:27;;;;;;;19.92;14.73;;;;;;;;;;4989187;28;20306;-67
2021/09/03 07:42:53;;;;;;;23.83;14.35;;;;;;;;;;4984417;28;20246;-69
2021/09/03 07:45:18;;;;;;;20.10;12.98;;;;;;;;;;4987867;28;20254;-68
2021/09/03 07:47:44;;;;;;;19.95;12.43;;;;;;;;;;4986232;28;20634;-69
2021/09/03 07:50:09;;;;;;;18.63;12.80;;;;;;;;;;4991310;28;20627;-70
2021/09/03 07:52:34;;;;;;;19.27;12.73;;;;;;;;;;4992180;28;20563;-69
2021/09/03 07:54:59;;;;;;;16.23;12.20;;;;;;;;;;4991250;28;20215;-69
2021/09/03 07:57:25;;;;;;;16.40;11.65;;;;;;;;;;4992707;28;20475;-69
2021/09/03 07:59:50;;;;;;;16.75;11.63;;;;;;;;;;4993000;28;20203;-70
2021/09/03 08:02:15;;;;;;;17.03;11.50;;;;;;;;;;4992979;28;20203;-69
2021/09/03 08:04:40;;;;;;;19.88;12.63;;;;;;;;;;4993760;28;20467;-69
2021/09/03 08:07:05;;;;;;;17.70;12.13;;;;;;;;;;4996096;28;20176;-69
2021/09/03 08:09:31;;;;;;;18.52;11.63;;;;;;;;;;4995545;28;20919;-69
2021/09/03 08:11:56;;;;;;;17.55;11.55;;;;;;;;;;4992979;23;20318;-71
2021/09/03 08:14:21;;;;;;;12.43;10.50;;;;;;;;;;4978728;28;20203;-70
2021/09/03 08:16:46;;;;;;;14.55;11.18;;;;;;;;;;4957728;28;20454;-70
2021/09/03 08:19:11;;;;;;;18.03;11.90;;;;;;;;;;4974417;28;20247;-70
2021/09/03 08:21:37;;;;;;;14.35;10.73;;;;;;;;;;4956919;28;20457;-70
2021/09/03 08:24:02;;;;;;;14.05;10.52;;;;;;;;;;4974807;28;20172;-70
2021/09/03 08:26:28;;;;;;;16.98;10.98;;;;;;;;;;4974916;28;20263;-70
2021/09/03 08:28:53;;;;;;;18.00;11.90;;;;;;;;;;4956780;28;20270;-70
2021/09/03 08:31:19;;;;;;;13.73;10.57;;;;;;;;;;4974818;28;20294;-70
2021/09/03 08:33:44;;;;;;;12.57;10.40;;;;;;;;;;4974343;28;20341;-70
2021/09/03 08:36:09;;;;;;;16.13;10.88;;;;;;;;;;4974484;28;20203;-71
2021/09/03 08:38:35;;;;;;;17.23;11.23;;;;;;;;;;4974236;28;20199;-70
2021/09/03 08:41:00;;;;;;;15.80;10.10;;;;;;;;;;4974629;28;20492;-70
2021/09/03 08:43:26;;;;;;;10.63;8.75;;;;;;;;;;4974408;28;20181;-70
2021/09/03 08:45:52;;;;;;;15.07;9.68;;;;;;;;;;4963250;28;20192;-70
2021/09/03 08:48:19;;;;;;;11.45;9.18;;;;;;;;;;4967407;28;20230;-70
2021/09/03 08:50:44;;;;;;;15.50;10.55;;;;;;;;;;4972966;28;20205;-69
2021/09/03 08:53:09;;;;;;;10.43;8.87;;;;;;;;;;4970904;28;20187;-70
2021/09/03 08:55:34;;;;;;;11.77;9.33;;;;;;;;;;4972294;28;20884;-70
2021/09/03 08:57:59;;;;;;;12.38;9.88;;;;;;;;;;4967439;28;20513;-69
2021/09/03 09:00:30;;;;;;;14.80;10.20;;;;;;;;;;4973642;28;20217;-70
2021/09/03 09:03:00;;;;;;;12.45;9.82;;;;;;;;;;4974681;28;20184;-70
2021/09/03 09:05:43;;;;;;;14.10;10.73;;;;;;;;;;4972815;28;20180;-70
2021/09/03 09:08:09;;;;;;;13.55;9.27;;;;;;;;;;4977081;28;20250;-70
2021/09/03 09:10:34;;;;;;;16.55;8.88;;;;;;;;;;4975028;28;20290;-70
2021/09/03 09:12:59;;;;;;;12.68;9.98;;;;;;;;;;4974786;28;20642;-70
2021/09/03 09:15:24;;;;;;;11.87;9.30;;;;;;;;;;4973989;28;20602;-71
2021/09/03 09:17:49;;;;;;;11.37;8.43;;;;;;;;;;4974329;28;20485;-70
2021/09/03 09:20:18;;;;;;;12.63;9.10;;;;;;;;;;4973055;28;20631;-70
2021/09/03 09:22:53;;;;;;;12.02;8.18;;;;;;;;;;4952038;28;20181;-70
2021/09/03 09:25:20;;;;;;;9.57;8.35;;;;;;;;;;4953375;28;20199;-70
2021/09/03 09:27:46;;;;;;;15.05;9.35;;;;;;;;;;4972853;28;20195;-70
2021/09/03 09:30:38;;;;;;;13.90;9.77;;;;;;;;;;4953311;28;20189;-70
2021/09/03 09:33:20;;;;;;;13.68;9.80;;;;;;;;;;4968907;28;20590;-71
2021/09/03 09:35:47;;;;;;;11.40;8.38;;;;;;;;;;4972381;28;20212;-71
2021/09/03 09:38:13;;;;;;;12.45;8.55;;;;;;;;;;4955059;28;20184;-71
2021/09/03 09:40:42;;;;;;;12.82;9.25;;;;;;;;;;4973323;28;20247;-71
2021/09/03 09:43:24;;;;;;;13.90;9.77;;;;;;;;;;4970982;28;20218;-72
2021/09/03 09:46:07;;;;;;;13.25;8.60;;;;;;;;;;4969784;28;20188;-71
2021/09/03 09:48:33;;;;;;;13.65;9.05;;;;;;;;;;4970865;28;20207;-71
2021/09/03 09:50:58;;;;;;;14.15;9.73;;;;;;;;;;4955845;28;20648;-71
2021/09/03 09:53:25;;;;;;;13.63;9.63;;;;;;;;;;4952368;28;20294;-71
2021/09/03 09:55:51;;;;;;;12.77;9.05;;;;;;;;;;4973142;28;20549;-71
2021/09/03 09:58:18;;;;;;;14.50;8.93;;;;;;;;;;4965915;28;20264;-71
2021/09/03 10:00:44;;;;;;;15.07;9.52;;;;;;;;;;4968664;28;20252;-71
2021/09/03 10:03:10;;;;;;;13.32;8.65;;;;;;;;;;4966933;28;20614;-71
2021/09/03 10:05:36;;;;;;;12.05;9.45;;;;;;;;;;4953479;28;20279;-71
2021/09/03 10:08:02;;;;;;;14.35;8.88;;;;;;;;;;4954158;28;20231;-71
2021/09/03 10:10:27;;;;;;;10.73;7.47;;;;;;;;;;4945824;28;20217;-71
2021/09/03 10:12:52;;;;;;;12.67;9.37;;;;;;;;;;4970282;28;20255;-71
2021/09/03 10:15:18;;;;;;;15.73;9.40;;;;;;;;;;4970319;28;20968;-71
2021/09/03 10:17:43;;;;;;;14.98;9.82;;;;;;;;;;4971505;28;20184;-71
2021/09/03 10:20:09;;;;;;;12.95;10.02;;;;;;;;;;4971182;28;20251;-71
2021/09/03 10:22:41;;;;;;;11.10;8.43;;;;;;;;;;4970890;28;20192;-72
2021/09/03 10:25:08;;;;;;;12.77;8.40;;;;;;;;;;4970459;28;20715;-72
2021/09/03 10:27:33;;;;;;;11.63;9.25;;;;;;;;;;4966994;28;20184;-72
2021/09/03 10:30:11;;;;;;;12.82;8.90;;;;;;;;;;4971666;28;20243;-71
2021/09/03 10:32:36;;;;;;;12.77;8.98;;;;;;;;;;4971602;28;20180;-72
2021/09/03 10:35:03;;;;;;;13.70;9.35;;;;;;;;;;4954018;28;20263;-72
2021/09/03 10:37:30;;;;;;;15.98;9.35;;;;;;;;;;4950612;28;20180;-72
2021/09/03 10:40:04;;;;;;;10.48;9.38;;;;;;;;;;4972432;28;20558;-71
2021/09/03 10:45:21;;;;;;;12.25;9.18;;;;;;;;;;4972268;28;20192;-72
2021/09/03 10:47:47;;;;;;;11.65;9.15;;;;;;;;;;4952343;28;20231;-71
2021/09/03 10:50:26;;;;;;;15.68;10.02;;;;;;;;;;4953423;28;20176;-72
2021/09/03 10:53:15;;;;;;;13.55;9.57;;;;;;;;;;4971976;28;20176;-72
2021/09/03 10:55:46;;;;;;;17.67;10.55;;;;;;;;;;4937739;28;20239;-71
2021/09/03 10:58:28;;;;;;;15.38;9.40;;;;;;;;;;4962484;28;20181;-71
2021/09/03 11:01:13;;;;;;;11.73;9.55;;;;;;;;;;4967241;28;20199;-71
2021/09/03 11:03:43;;;;;;;13.27;9.52;;;;;;;;;;4966742;28;20649;-72
2021/09/03 11:06:11;;;;;;;13.70;9.52;;;;;;;;;;4971126;28;20181;-71
2021/09/03 11:08:40;;;;;;;11.10;9.32;;;;;;;;;;4971977;28;20184;-71
2021/09/03 11:11:21;;;;;;;11.73;9.55;;;;;;;;;;4954399;28;20400;-71
2021/09/03 11:13:47;;;;;;;15.32;9.82;;;;;;;;;;4972298;28;20767;-71
2021/09/03 11:16:44;;;;;;;11.77;9.00;;;;;;;;;;4971790;28;20288;-72
2021/09/03 11:19:12;;;;;;;11.93;9.30;;;;;;;;;;4955612;28;20200;-71
2021/09/03 11:21:49;;;;;;;12.40;9.68;;;;;;;;;;4972173;28;20662;-72
2021/09/03 11:24:15;;;;;;;13.23;10.05;;;;;;;;;;4971959;28;20172;-71
2021/09/03 11:26:41;;;;;;;11.57;9.23;;;;;;;;;;4972019;28;20180;-71
2021/09/03 11:29:16;;;;;;;15.57;9.82;;;;;;;;;;4962338;28;20184;-71
2021/09/03 11:31:51;;;;;;;11.82;10.30;;;;;;;;;;4963740;28;20254;-71
2021/09/03 11:34:16;;;;;;;20.02;10.23;;;;;;;;;;4971484;28;20184;-71
2021/09/03 11:36:46;;;;;;;11.77;9.87;;;;;;;;;;4969539;28;20204;-72
2021/09/03 11:39:16;;;;;;;13.15;9.25;;;;;;;;;;4949760;28;20425;-72
2021/09/03 11:41:48;;;;;;;13.07;8.77;;;;;;;;;;4972753;28;20279;-72
2021/09/03 11:44:13;;;;;;;17.05;10.32;;;;;;;;;;4974276;28;20654;-73
2021/09/03 11:46:38;;;;;;;13.50;9.50;;;;;;;;;;4971838;28;20199;-72
2021/09/03 11:49:03;;;;;;;13.67;8.80;;;;;;;;;;4974990;28;20180;-71
2021/09/03 11:51:29;;;;;;;15.07;8.27;;;;;;;;;;4967050;28;20204;-71
2021/09/03 11:53:59;;;;;;;16.20;9.03;;;;;;;;;;4966631;28;20568;-72
2021/09/03 11:56:25;;;;;;;14.00;9.27;;;;;;;;;;4971842;28;20445;-72
2021/09/03 11:58:50;;;;;;;10.43;8.73;;;;;;;;;;4972320;28;20192;-71
2021/09/03 12:01:19;;;;;;;11.35;8.68;;;;;;;;;;4974737;28;20196;-73
2021/09/03 12:03:48;;;;;;;12.75;8.38;;;;;;;;;;4955487;28;20260;-74
2021/09/03 12:06:15;;;;;;;13.30;8.73;;;;;;;;;;4974278;28;20802;-73
2021/09/03 12:08:40;;;;;;;12.43;8.77;;;;;;;;;;4972181;28;20910;-73
2021/09/03 12:11:10;;;;;;;12.52;8.20;;;;;;;;;;4971485;28;20219;-74
2021/09/03 12:13:37;;;;;;;11.07;8.20;;;;;;;;;;4977132;28;20188;-74
2021/09/03 12:16:03;;;;;;;10.18;8.45;;;;;;;;;;4962429;28;20200;-74
2021/09/03 12:18:28;;;;;;;9.80;8.35;;;;;;;;;;4956831;28;20231;-74
2021/09/03 12:21:12;;;;;;;13.05;8.93;;;;;;;;;;4972480;28;20205;-74
2021/09/03 12:23:41;;;;;;;10.65;8.43;;;;;;;;;;4972089;28;20188;-73
2021/09/03 12:26:09;;;;;;;10.35;8.88;;;;;;;;;;4973368;28;20181;-74
2021/09/03 12:28:34;;;;;;;9.35;8.40;;;;;;;;;;4956946;28;20179;-74
2021/09/03 12:31:04;;;;;;;8.43;7.20;;;;;;;;;;4973128;28;20200;-74
2021/09/03 12:33:29;;;;;;;12.73;9.13;;;;;;;;;;4971316;28;20270;-74
2021/09/03 12:35:56;;;;;;;12.38;9.63;;;;;;;;;;4973418;28;20560;-73
2021/09/03 12:38:51;;;;;;;11.25;8.52;;;;;;;;;;4973045;28;20263;-74
2021/09/03 12:41:19;;;;;;;13.13;8.98;;;;;;;;;;4958539;28;20643;-74
2021/09/03 12:43:51;;;;;;;13.93;8.55;;;;;;;;;;4973728;28;20961;-73
2021/09/03 12:46:16;;;;;;;11.30;8.35;;;;;;;;;;4973328;28;20220;-74
2021/09/03 12:48:45;;;;;;;14.93;9.40;;;;;;;;;;4973860;28;20258;-74
2021/09/03 12:51:20;;;;;;;14.68;9.65;;;;;;;;;;4970697;28;20219;-74
2021/09/03 12:53:50;;;;;;;11.65;8.70;;;;;;;;;;4970675;28;20195;-74
2021/09/03 12:56:15;;;;;;;10.23;7.95;;;;;;;;;;4973818;28;20215;-73
2021/09/03 12:58:40;;;;;;;14.27;9.43;;;;;;;;;;4970746;28;20558;-74
2021/09/03 13:01:05;;;;;;;14.27;9.30;;;;;;;;;;4971699;28;20283;-74
2021/09/03 13:03:30;;;;;;;12.00;9.03;;;;;;;;;;4946292;28;20169;-74
2021/09/03 13:05:56;;;;;;;9.97;8.90;;;;;;;;;;4971857;28;20211;-73
2021/09/03 13:08:21;;;;;;;11.55;9.30;;;;;;;;;;4972176;28;20195;-74
2021/09/03 13:10:46;;;;;;;12.00;8.23;;;;;;;;;;4971958;28;20651;-74
2021/09/03 13:13:11;;;;;;;13.60;8.90;;;;;;;;;;4971278;28;20448;-73
2021/09/03 13:15:37;;;;;;;14.80;8.60;;;;;;;;;;4972922;28;20458;-74
2021/09/03 13:18:02;;;;;;;9.20;8.07;;;;;;;;;;4969920;28;20552;-74
2021/09/03 13:20:27;;;;;;;10.07;8.50;;;;;;;;;;4969821;28;20215;-73
2021/09/03 13:22:52;;;;;;;10.70;7.78;;;;;;;;;;4968079;28;20231;-74
2021/09/03 13:25:17;;;;;;;10.93;7.40;;;;;;;;;;4972423;28;20184;-75
2021/09/03 13:27:43;;;;;;;15.40;8.37;;;;;;;;;;4973606;28;20275;-74
2021/09/03 13:30:08;;;;;;;16.65;8.85;;;;;;;;;;4969263;28;20509;-74
2021/09/03 13:32:34;;;;;;;10.73;8.35;;;;;;;;;;4971885;28;20184;-74
2021/09/03 13:34:59;;;;;;;11.57;8.25;;;;;;;;;;4973383;28;20192;-74
2021/09/03 13:37:24;;;;;;;10.77;8.73;;;;;;;;;;4968827;28;20181;-74
2021/09/03 13:39:50;;;;;;;11.63;9.23;;;;;;;;;;4972110;28;20187;-74
2021/09/03 13:42:15;;;;;;;12.38;9.05;;;;;;;;;;4971998;28;20442;-74
2021/09/03 13:44:41;;;;;;;11.43;7.53;;;;;;;;;;4970158;28;20180;-74
2021/09/03 13:47:07;;;;;;;8.55;7.47;;;;;;;;;;4950997;28;20177;-74
2021/09/03 13:49:32;;;;;;;12.23;7.53;;;;;;;;;;4972902;28;20184;-72
2021/09/03 13:51:57;;;;;;;12.43;7.90;;;;;;;;;;4971826;28;20219;-73
2021/09/03 13:54:23;;;;;;;11.47;8.53;;;;;;;;;;4968226;28;20181;-72
2021/09/03 13:56:48;;;;;;;9.40;7.87;;;;;;;;;;4970783;28;20203;-73
2021/09/03 13:59:14;;;;;;;10.23;7.60;;;;;;;;;;4971525;28;20454;-73
2021/09/03 14:01:40;;;;;;;10.63;6.90;;;;;;;;;;4971564;28;20275;-73
2021/09/03 14:04:06;;;;;;;8.25;7.28;;;;;;;;;;4967055;28;20198;-72
2021/09/03 14:06:33;;;;;;;13.82;7.82;;;;;;;;;;4951193;28;20255;-71
2021/09/03 14:08:58;;;;;;;13.80;9.35;;;;;;;;;;4970283;28;20226;-72
2021/09/03 14:11:23;;;;;;;11.67;8.80;;;;;;;;;;4991276;23;20231;-68
2021/09/03 14:13:48;;;;;;;10.97;8.63;;;;;;;;;;4992913;28;20272;-68
2021/09/03 14:16:14;;;;;;;14.03;9.33;;;;;;;;;;4990084;28;20203;-67
2021/09/03 14:18:40;;;;;;;10.80;9.00;;;;;;;;;;4989280;28;20214;-65
2021/09/03 14:21:06;;;;;;;11.45;7.57;;;;;;;;;;4971908;28;20199;-67